KEWB/EWB METAR and TAF weather

Enter ICAO airport designator
Station Type Date Time Source
KEWB METAR 2019/05/26 23:53 UTC NOAA

KEWB 262353Z 24006KT 10SM FEW080 23/16 A2978 RMK AO2 SLP083 T02280156 10278 20217 56003


Station Type Date Time Source
KEWB Decoded METAR 2019/05/26 23:53 UTC NOAA

NEW BEDFORD REGIONAL AIRPORT, MA, United States (KEWB) 41-41N 070-58W 23M
May 26, 2019 - 07:53 PM EDT / 2019.05.26 2353 UTC
Wind: from the WSW (240 degrees) at 7 MPH (6 KT):0
Visibility: 10 mile(s):0
Sky conditions: mostly clear
Temperature: 73.0 F (22.8 C)
Dew Point: 60.1 F (15.6 C)
Relative Humidity: 63%
Pressure (altimeter): 29.78 in. Hg (1008 hPa)
Pressure tendency: 0.01 inches (0.3 hPa) lower than three hours ago
ob: KEWB 262353Z 24006KT 10SM FEW080 23/16 A2978 RMK AO2 SLP083 T02280156 10278 20217 56003
cycle: 0

Station Type Date Time Source
KEWB TAF UTC NOAA

Error!

Example: see airport list